createdAt,value
2022-11-18T00:01:06.841Z,7.67
2022-11-18T00:03:33.612Z,7.68
2022-11-18T00:06:00.189Z,7.69
2022-11-18T00:08:27.664Z,7.70
2022-11-18T00:10:54.302Z,7.71
2022-11-18T00:13:39.474Z,7.79
2022-11-18T00:16:15.141Z,7.81
2022-11-18T00:18:41.789Z,7.86
2022-11-18T00:21:11.371Z,7.85
2022-11-18T00:23:38.710Z,7.81
2022-11-18T00:26:15.189Z,7.80
2022-11-18T00:28:42.116Z,7.82
2022-11-18T00:31:12.180Z,7.81
2022-11-18T00:33:39.555Z,7.79
2022-11-18T00:36:09.094Z,7.77
2022-11-18T00:38:35.957Z,7.76
2022-11-18T00:41:04.034Z,7.79
2022-11-18T00:43:30.815Z,7.79
2022-11-18T00:45:57.880Z,7.76
2022-11-18T00:48:24.952Z,7.77
2022-11-18T00:50:53.727Z,7.73
2022-11-18T00:53:22.041Z,7.72
2022-11-18T00:55:49.225Z,7.69
2022-11-18T00:58:15.884Z,7.67
2022-11-18T01:00:44.983Z,7.71
2022-11-18T01:03:12.877Z,7.72
2022-11-18T01:05:40.214Z,7.67
2022-11-18T01:08:09.740Z,7.66
2022-11-18T01:10:37.189Z,7.59
2022-11-18T01:13:19.993Z,7.56
2022-11-18T01:15:48.213Z,7.55
2022-11-18T01:18:15.833Z,7.51
2022-11-18T01:20:43.018Z,7.46
2022-11-18T01:23:09.775Z,7.43
2022-11-18T01:25:38.694Z,7.39
2022-11-18T01:28:05.542Z,7.37
2022-11-18T01:30:40.317Z,7.29
2022-11-18T01:33:08.433Z,7.25
2022-11-18T01:35:40.222Z,7.19
2022-11-18T01:38:07.185Z,7.13
2022-11-18T01:40:34.768Z,7.08
2022-11-18T01:43:02.233Z,6.97
2022-11-18T01:45:40.041Z,6.93
2022-11-18T01:48:22.045Z,6.87
2022-11-18T01:50:54.616Z,6.81
2022-11-18T01:53:29.221Z,6.78
2022-11-18T01:55:58.256Z,6.76
2022-11-18T01:58:34.368Z,6.75
2022-11-18T02:01:02.312Z,6.71
2022-11-18T02:03:29.275Z,6.71
2022-11-18T02:05:56.791Z,6.68
2022-11-18T02:08:23.758Z,6.70
2022-11-18T02:10:50.372Z,6.74
2022-11-18T02:13:18.140Z,6.71
2022-11-18T02:15:51.178Z,6.65
2022-11-18T02:18:35.758Z,6.64
2022-11-18T02:21:22.645Z,6.68
2022-11-18T02:24:12.424Z,6.68
2022-11-18T02:27:08.013Z,6.71
2022-11-18T02:29:45.763Z,6.67
2022-11-18T02:32:29.264Z,6.66
2022-11-18T02:34:55.795Z,6.68
2022-11-18T02:37:31.378Z,6.64
2022-11-18T02:40:02.652Z,6.59
2022-11-18T02:42:32.700Z,6.59
2022-11-18T02:45:07.966Z,6.60
2022-11-18T02:47:37.565Z,6.57
2022-11-18T02:50:10.495Z,6.57
2022-11-18T02:52:39.963Z,6.61
2022-11-18T02:55:10.224Z,6.62
2022-11-18T02:57:40.306Z,6.64
2022-11-18T03:00:07.441Z,6.65
2022-11-18T03:02:45.530Z,6.63
2022-11-18T03:05:48.332Z,6.59
2022-11-18T03:08:21.037Z,6.59
2022-11-18T03:11:06.298Z,6.61
2022-11-18T03:13:59.035Z,6.50
2022-11-18T03:16:38.339Z,6.49
2022-11-18T03:19:53.466Z,6.52
2022-11-18T03:22:26.525Z,6.40
2022-11-18T03:25:10.586Z,6.35
2022-11-18T03:27:47.317Z,6.33
2022-11-18T03:30:19.089Z,6.36
2022-11-18T03:32:53.694Z,6.31
2022-11-18T03:35:26.306Z,6.30
2022-11-18T03:37:59.820Z,6.33
2022-11-18T03:40:31.183Z,6.36
2022-11-18T03:43:06.626Z,6.36
2022-11-18T03:45:47.922Z,6.34
2022-11-18T03:48:17.520Z,6.47
2022-11-18T03:51:09.422Z,6.44
2022-11-18T03:53:45.586Z,6.36
2022-11-18T03:56:23.220Z,6.44
2022-11-18T03:58:57.478Z,6.39
2022-11-18T04:01:39.949Z,6.40
2022-11-18T04:04:07.426Z,6.38
2022-11-18T04:06:46.284Z,6.41
2022-11-18T04:09:19.089Z,6.39
2022-11-18T04:12:05.556Z,6.42
2022-11-18T04:14:38.394Z,6.43
2022-11-18T04:17:13.823Z,6.41
2022-11-18T04:19:41.241Z,6.45
2022-11-18T04:22:08.731Z,6.45
2022-11-18T04:24:35.693Z,6.46
2022-11-18T04:27:02.861Z,6.48
2022-11-18T04:29:30.605Z,6.46
2022-11-18T04:31:57.258Z,6.43
2022-11-18T04:34:23.924Z,6.43
2022-11-18T04:36:50.473Z,6.47
2022-11-18T04:39:18.502Z,6.46
2022-11-18T04:41:57.991Z,6.45
2022-11-18T04:44:33.137Z,6.52
2022-11-18T04:47:02.894Z,6.49
2022-11-18T04:49:30.512Z,6.49
2022-11-18T04:51:57.984Z,6.49
2022-11-18T04:54:25.711Z,6.50
2022-11-18T04:56:53.075Z,6.52
2022-11-18T04:59:22.378Z,6.52
2022-11-18T05:01:50.127Z,6.54
2022-11-18T05:04:19.537Z,6.50
2022-11-18T05:06:46.983Z,6.52
2022-11-18T05:09:13.745Z,6.29
2022-11-18T05:11:59.266Z,6.28
2022-11-18T05:14:30.053Z,6.22
2022-11-18T05:16:59.893Z,6.23
2022-11-18T05:19:26.961Z,6.16
2022-11-18T05:21:54.200Z,6.01
2022-11-18T05:24:21.014Z,6.07
2022-11-18T05:26:47.779Z,6.02
2022-11-18T05:29:14.495Z,5.93
2022-11-18T05:31:41.325Z,5.93
2022-11-18T05:34:08.092Z,6.01
2022-11-18T05:36:34.902Z,6.02
2022-11-18T05:39:01.895Z,5.99
2022-11-18T05:41:47.219Z,6.00
2022-11-18T05:44:13.985Z,5.98
2022-11-18T05:46:40.589Z,5.98
2022-11-18T05:49:07.817Z,5.88
2022-11-18T05:51:35.195Z,5.84
2022-11-18T05:54:05.169Z,5.74
2022-11-18T05:56:37.206Z,5.67
2022-11-18T05:59:04.396Z,5.67
2022-11-18T06:01:33.783Z,5.63
2022-11-18T06:04:02.597Z,5.60
2022-11-18T06:06:29.432Z,5.56
2022-11-18T06:09:02.879Z,5.61
2022-11-18T06:11:32.840Z,5.61
2022-11-18T06:14:31.277Z,5.57
2022-11-18T06:17:02.831Z,5.51
2022-11-18T06:19:30.050Z,5.52
2022-11-18T06:21:56.724Z,5.54
2022-11-18T06:24:24.905Z,5.60
2022-11-18T06:26:51.963Z,5.55
2022-11-18T06:29:26.010Z,5.49
2022-11-18T06:31:54.278Z,5.53
2022-11-18T06:34:20.982Z,5.50
2022-11-18T06:36:47.621Z,5.44
2022-11-18T06:39:14.734Z,5.43
2022-11-18T06:41:41.543Z,5.51
2022-11-18T06:44:08.354Z,5.54
2022-11-18T06:46:53.421Z,5.51
2022-11-18T06:49:20.323Z,5.55
2022-11-18T06:51:47.204Z,5.55
2022-11-18T06:54:14.137Z,5.47
2022-11-18T06:56:40.780Z,5.46
2022-11-18T06:59:07.543Z,5.48
2022-11-18T07:01:39.139Z,5.51
2022-11-18T07:04:05.921Z,5.46
2022-11-18T07:06:35.116Z,5.56
2022-11-18T07:09:03.909Z,5.59
2022-11-18T07:11:30.560Z,5.44
2022-11-18T07:13:57.183Z,5.46
2022-11-18T07:16:26.899Z,5.47
2022-11-18T07:18:55.314Z,5.43
2022-11-18T07:21:25.037Z,5.42
2022-11-18T07:23:52.440Z,5.45
2022-11-18T07:26:19.664Z,5.33
2022-11-18T07:28:46.222Z,5.33
2022-11-18T07:31:15.838Z,5.44
2022-11-18T07:33:44.358Z,5.35
2022-11-18T07:36:13.924Z,5.40
2022-11-18T07:38:40.863Z,5.42
2022-11-18T07:41:08.709Z,5.31
2022-11-18T07:43:36.859Z,5.27
2022-11-18T07:46:11.362Z,5.32
2022-11-18T07:48:38.324Z,5.12
2022-11-18T07:51:05.072Z,5.16
2022-11-18T07:53:33.046Z,5.01
2022-11-18T07:56:00.077Z,5.06
2022-11-18T07:58:27.134Z,5.11
2022-11-18T08:00:53.854Z,5.04
2022-11-18T08:03:24.740Z,4.96
2022-11-18T08:05:51.522Z,5.10
2022-11-18T08:08:18.185Z,5.14
2022-11-18T08:10:44.886Z,5.24
2022-11-18T08:13:11.520Z,5.15
2022-11-18T08:15:41.938Z,5.17
2022-11-18T08:18:13.524Z,5.13
2022-11-18T08:20:40.540Z,5.17
2022-11-18T08:23:07.253Z,5.16
2022-11-18T08:25:33.978Z,5.02
2022-11-18T08:28:00.711Z,4.96
2022-11-18T08:30:27.617Z,4.98
2022-11-18T08:32:54.339Z,4.88
2022-11-18T08:35:21.219Z,4.97
2022-11-18T08:37:47.966Z,5.02
2022-11-18T08:40:14.761Z,5.05
2022-11-18T08:42:41.455Z,5.12
2022-11-18T08:45:08.555Z,5.01
2022-11-18T08:47:36.160Z,5.02
2022-11-18T08:50:08.167Z,5.09
2022-11-18T08:52:35.064Z,5.01
2022-11-18T08:55:02.332Z,5.01
2022-11-18T08:57:29.118Z,5.01
2022-11-18T08:59:56.058Z,4.98
2022-11-18T09:02:24.259Z,4.90
2022-11-18T09:04:51.837Z,4.81
2022-11-18T09:07:20.494Z,4.77
2022-11-18T09:09:47.376Z,4.80
2022-11-18T09:12:15.306Z,4.80
2022-11-18T09:17:32.242Z,4.84
2022-11-18T09:19:58.891Z,4.84
2022-11-18T09:22:25.600Z,4.90
2022-11-18T09:24:52.256Z,4.77
2022-11-18T09:27:18.892Z,4.82
2022-11-18T09:29:46.059Z,4.68
2022-11-18T09:32:12.984Z,4.79
2022-11-18T09:34:39.605Z,4.72
2022-11-18T09:37:07.162Z,4.75
2022-11-18T09:39:37.426Z,4.70
2022-11-18T09:42:32.302Z,4.70
2022-11-18T09:45:23.570Z,4.64
2022-11-18T09:47:51.333Z,4.77
2022-11-18T09:53:19.449Z,4.87
2022-11-18T09:55:47.279Z,4.70
2022-11-18T09:58:20.910Z,4.79
2022-11-18T10:00:47.554Z,4.53
2022-11-18T10:03:16.412Z,4.59
2022-11-18T10:05:57.163Z,4.64
2022-11-18T10:08:31.179Z,4.43
2022-11-18T10:11:04.910Z,4.62
2022-11-18T10:13:56.661Z,4.62
2022-11-18T10:16:39.580Z,4.51
2022-11-18T10:19:16.051Z,4.41
2022-11-18T10:21:55.735Z,4.27
2022-11-18T10:24:25.597Z,4.26
2022-11-18T10:27:00.236Z,4.19
2022-11-18T10:29:27.482Z,4.17
2022-11-18T10:32:04.743Z,4.26
2022-11-18T10:34:33.312Z,4.27
2022-11-18T10:37:13.599Z,4.18
2022-11-18T10:39:54.688Z,4.17
2022-11-18T10:42:27.471Z,4.12
2022-11-18T10:44:54.180Z,4.06
2022-11-18T10:47:33.140Z,4.06
2022-11-18T10:50:03.379Z,4.00
2022-11-18T10:52:30.877Z,4.06
2022-11-18T10:55:19.663Z,4.10
2022-11-18T10:57:47.442Z,4.04
2022-11-18T11:00:47.455Z,4.01
2022-11-18T11:03:34.489Z,4.06
2022-11-18T11:06:23.847Z,4.12
2022-11-18T11:08:51.648Z,3.96
2022-11-18T11:11:28.857Z,4.01
2022-11-18T11:14:06.408Z,4.01
2022-11-18T11:16:39.071Z,3.91
2022-11-18T11:19:09.998Z,3.87
2022-11-18T11:21:36.773Z,3.81
2022-11-18T11:24:10.428Z,3.85
2022-11-18T11:29:55.630Z,3.70
2022-11-18T11:32:47.145Z,3.71
2022-11-18T11:35:33.161Z,3.80
2022-11-18T11:38:04.402Z,3.71
2022-11-18T11:40:37.240Z,3.67
2022-11-18T11:43:27.786Z,3.69
2022-11-18T11:46:16.862Z,3.65
2022-11-18T11:48:46.461Z,3.53
2022-11-18T11:51:25.981Z,3.56
2022-11-18T11:54:04.322Z,3.69
2022-11-18T11:56:50.500Z,3.71
2022-11-18T11:59:58.830Z,3.57
2022-11-18T12:03:02.856Z,3.56
2022-11-18T12:05:36.680Z,3.51
2022-11-18T12:08:10.147Z,3.51
2022-11-18T12:11:08.055Z,3.49
2022-11-18T12:14:01.701Z,3.45
2022-11-18T12:16:43.015Z,3.46
2022-11-18T12:19:16.873Z,3.32
2022-11-18T12:21:46.802Z,3.23
2022-11-18T12:24:31.675Z,3.29
2022-11-18T12:27:24.532Z,3.27
2022-11-18T12:29:52.197Z,3.16
2022-11-18T12:32:43.628Z,3.20
2022-11-18T12:35:13.013Z,3.21
2022-11-18T12:37:45.625Z,3.22
2022-11-18T12:40:34.338Z,3.09
2022-11-18T12:43:20.098Z,3.07
2022-11-18T12:45:46.679Z,3.16
2022-11-18T12:48:35.163Z,2.99
2022-11-18T12:51:30.770Z,2.79
2022-11-18T12:53:57.624Z,2.81
2022-11-18T12:56:27.554Z,2.77
2022-11-18T12:58:57.173Z,2.79
2022-11-18T13:01:26.721Z,2.67
2022-11-18T13:04:06.021Z,2.69
2022-11-18T13:06:35.018Z,2.64
2022-11-18T13:09:05.160Z,2.52
2022-11-18T13:11:46.463Z,2.58
2022-11-18T13:14:55.470Z,2.47
2022-11-18T13:17:54.966Z,2.49
2022-11-18T13:20:35.714Z,2.48
2022-11-18T13:23:30.002Z,2.43
2022-11-18T13:26:06.036Z,2.40
2022-11-18T13:29:01.707Z,2.41
2022-11-18T13:31:55.864Z,2.34
2022-11-18T13:34:26.248Z,2.18
2022-11-18T13:36:54.470Z,2.16
2022-11-18T13:39:29.895Z,2.12
2022-11-18T13:42:03.774Z,2.06
2022-11-18T13:44:36.248Z,1.95
2022-11-18T13:47:21.680Z,1.94
2022-11-18T13:50:17.203Z,1.92
2022-11-18T13:53:02.396Z,1.92
2022-11-18T13:55:34.300Z,1.80
2022-11-18T13:58:06.133Z,1.79
2022-11-18T14:00:35.776Z,1.75
2022-11-18T14:03:24.030Z,1.70
2022-11-18T14:05:55.183Z,1.72
2022-11-18T14:08:33.477Z,1.76
2022-11-18T14:11:01.348Z,1.76
2022-11-18T14:13:34.814Z,1.67
2022-11-18T14:16:24.161Z,1.74
2022-11-18T14:18:51.994Z,1.62
2022-11-18T14:21:29.330Z,1.63
2022-11-18T14:23:56.653Z,1.58
2022-11-18T14:26:29.071Z,1.65
2022-11-18T14:29:15.202Z,1.56
2022-11-18T14:31:42.643Z,1.54
2022-11-18T14:34:26.492Z,1.54
2022-11-18T14:36:55.778Z,1.66
2022-11-18T14:39:28.299Z,1.61
2022-11-18T14:41:56.095Z,1.51
2022-11-18T14:44:24.649Z,1.58
2022-11-18T14:46:59.757Z,1.59
2022-11-18T14:49:27.749Z,1.44
2022-11-18T14:51:55.315Z,1.30
2022-11-18T14:54:26.655Z,1.45
2022-11-18T14:56:57.057Z,1.31
2022-11-18T14:59:23.697Z,1.31
2022-11-18T15:01:50.613Z,1.34
2022-11-18T15:04:18.214Z,1.24
2022-11-18T15:06:45.653Z,1.27
2022-11-18T15:09:13.133Z,1.19
2022-11-18T15:11:39.985Z,1.27
2022-11-18T15:14:06.685Z,1.22
2022-11-18T15:16:35.026Z,1.06
2022-11-18T15:19:04.321Z,1.09
2022-11-18T15:21:31.254Z,1.10
2022-11-18T15:23:57.842Z,1.12
2022-11-18T15:26:30.423Z,1.24
2022-11-18T15:28:57.984Z,1.16
2022-11-18T15:31:25.890Z,1.16
2022-11-18T15:33:53.683Z,1.03
2022-11-18T15:36:24.677Z,1.05
2022-11-18T15:38:52.840Z,1.08
2022-11-18T15:41:22.427Z,1.05
2022-11-18T15:43:50.307Z,1.06
2022-11-18T15:46:21.846Z,0.97
2022-11-18T15:48:51.647Z,0.88
2022-11-18T15:51:18.574Z,0.78
2022-11-18T15:53:45.597Z,0.90
2022-11-18T15:56:24.209Z,0.99
2022-11-18T15:58:57.173Z,0.93
2022-11-18T16:01:25.845Z,0.71
2022-11-18T16:03:52.726Z,0.69
2022-11-18T16:06:19.449Z,0.56
2022-11-18T16:08:46.093Z,0.61
2022-11-18T16:11:33.705Z,0.56
2022-11-18T16:14:05.016Z,0.57
2022-11-18T16:16:33.055Z,0.61
2022-11-18T16:19:01.810Z,0.66
2022-11-18T16:21:29.877Z,0.66
2022-11-18T16:23:58.223Z,0.75
2022-11-18T16:26:26.226Z,0.72
2022-11-18T16:28:53.283Z,0.63
2022-11-18T16:31:39.599Z,0.69
2022-11-18T16:34:08.326Z,0.38
2022-11-18T16:36:36.040Z,0.43
2022-11-18T16:39:14.258Z,0.34
2022-11-18T16:41:42.552Z,0.26
2022-11-18T16:44:14.487Z,0.25
2022-11-18T16:46:46.309Z,0.38
2022-11-18T16:49:14.412Z,0.24
2022-11-18T16:51:43.749Z,0.28
2022-11-18T16:54:24.499Z,0.24
2022-11-18T16:56:53.293Z,0.24
2022-11-18T16:59:22.606Z,0.14
2022-11-18T17:01:53.751Z,0.17
2022-11-18T17:04:21.879Z,0.11
2022-11-18T17:06:48.608Z,0.17
2022-11-18T17:09:21.678Z,0.26
2022-11-18T17:11:49.707Z,0.14
2022-11-18T17:14:16.689Z,0.02
2022-11-18T17:16:43.456Z,-0.17
2022-11-18T17:19:14.739Z,-0.28
2022-11-18T17:21:42.207Z,-0.23
2022-11-18T17:24:09.677Z,-0.22
2022-11-18T17:26:36.710Z,-0.36
2022-11-18T17:29:03.436Z,-0.31
2022-11-18T17:31:30.316Z,-0.34
2022-11-18T17:33:57.184Z,-0.33
2022-11-18T17:36:25.971Z,-0.34
2022-11-18T17:38:54.721Z,-0.49
2022-11-18T17:41:42.760Z,-0.60
2022-11-18T17:44:11.719Z,-0.65
2022-11-18T17:46:38.876Z,-0.65
2022-11-18T17:49:07.988Z,-0.65
2022-11-18T17:51:34.688Z,-0.64
2022-11-18T17:54:01.530Z,-0.73
2022-11-18T17:56:28.217Z,-0.62
2022-11-18T17:58:54.916Z,-0.72
2022-11-18T18:01:22.650Z,-0.72
2022-11-18T18:03:49.947Z,-0.79
2022-11-18T18:06:17.388Z,-0.87
2022-11-18T18:08:44.031Z,-0.83
2022-11-18T18:11:18.912Z,-0.87
2022-11-18T18:14:04.485Z,-0.78
2022-11-18T18:16:32.865Z,-0.72
2022-11-18T18:19:00.897Z,-0.78
2022-11-18T18:21:27.662Z,-0.96
2022-11-18T18:23:54.560Z,-0.94
2022-11-18T18:26:24.183Z,-0.82
2022-11-18T18:28:54.855Z,-0.90
2022-11-18T18:31:21.679Z,-0.89
2022-11-18T18:33:48.513Z,-0.81
2022-11-18T18:36:18.257Z,-0.83
2022-11-18T18:38:46.144Z,-0.78
2022-11-18T18:41:19.075Z,-0.75
2022-11-18T18:43:46.571Z,-0.70
2022-11-18T18:46:32.406Z,-0.76
2022-11-18T18:49:03.601Z,-0.92
2022-11-18T18:51:55.544Z,-0.75
2022-11-18T18:54:22.540Z,-0.83
2022-11-18T18:56:49.467Z,-0.86
2022-11-18T18:59:16.161Z,-0.85
2022-11-18T19:01:43.268Z,-0.76
2022-11-18T19:04:17.552Z,-0.73
2022-11-18T19:06:53.652Z,-0.73
2022-11-18T19:09:25.898Z,-0.74
2022-11-18T19:12:11.937Z,-0.73
2022-11-18T19:14:38.723Z,-0.68
2022-11-18T19:17:10.802Z,-0.66
2022-11-18T19:19:58.706Z,-0.75
2022-11-18T19:22:25.379Z,-0.73
2022-11-18T19:24:52.838Z,-0.63
2022-11-18T19:27:20.271Z,-0.63
2022-11-18T19:29:47.433Z,-0.70
2022-11-18T19:32:14.734Z,-0.70
2022-11-18T19:34:41.384Z,-0.71
2022-11-18T19:37:07.993Z,-0.72
2022-11-18T19:39:35.457Z,-0.73
2022-11-18T19:42:02.133Z,-0.76
2022-11-18T19:44:28.795Z,-0.70
2022-11-18T19:46:55.468Z,-0.78
2022-11-18T19:49:22.651Z,-0.84
2022-11-18T19:51:49.460Z,-0.82
2022-11-18T19:54:16.074Z,-0.74
2022-11-18T19:56:42.728Z,-0.74
2022-11-18T19:59:14.298Z,-0.79
2022-11-18T20:01:41.105Z,-0.89
2022-11-18T20:04:07.839Z,-0.89
2022-11-18T20:06:36.340Z,-0.90
2022-11-18T20:09:06.953Z,-0.82
2022-11-18T20:11:33.695Z,-0.72
2022-11-18T20:14:00.456Z,-0.59
2022-11-18T20:16:27.118Z,-0.62
2022-11-18T20:18:55.654Z,-0.74
2022-11-18T20:21:23.656Z,-0.80
2022-11-18T20:23:55.511Z,-0.71
2022-11-18T20:26:25.025Z,-0.72
2022-11-18T20:28:57.164Z,-0.65
2022-11-18T20:31:25.436Z,-0.69
2022-11-18T20:33:53.955Z,-0.72
2022-11-18T20:36:23.826Z,-0.68
2022-11-18T20:38:53.400Z,-0.69
2022-11-18T20:41:21.409Z,-0.60
2022-11-18T20:43:48.532Z,-0.70
2022-11-18T20:46:20.275Z,-0.69
2022-11-18T20:48:48.485Z,-0.81
2022-11-18T20:51:21.132Z,-0.83
2022-11-18T20:53:47.936Z,-0.88
2022-11-18T20:56:20.023Z,-0.82
2022-11-18T20:58:47.490Z,-0.69
2022-11-18T21:01:15.623Z,-0.73
2022-11-18T21:03:43.545Z,-0.77
2022-11-18T21:06:14.769Z,-0.76
2022-11-18T21:08:42.478Z,-0.58
2022-11-18T21:11:12.433Z,-0.63
2022-11-18T21:13:58.806Z,-0.63
2022-11-18T21:16:27.226Z,-0.69
2022-11-18T21:18:54.570Z,-0.66
2022-11-18T21:21:39.773Z,-0.67
2022-11-18T21:24:06.746Z,-0.66
2022-11-18T21:26:35.150Z,-0.81
2022-11-18T21:29:05.158Z,-0.80
2022-11-18T21:31:32.787Z,-0.74
2022-11-18T21:33:59.732Z,-0.72
2022-11-18T21:36:27.630Z,-0.72
2022-11-18T21:38:55.518Z,-0.74
2022-11-18T21:41:22.091Z,-0.75
2022-11-18T21:44:05.099Z,-0.88
2022-11-18T21:46:34.039Z,-0.93
2022-11-18T21:49:00.855Z,-0.92
2022-11-18T21:51:28.163Z,-0.85
2022-11-18T21:53:55.107Z,-0.88
2022-11-18T21:56:23.914Z,-0.92
2022-11-18T21:58:51.011Z,-1.04
2022-11-18T22:01:23.598Z,-1.04
2022-11-18T22:03:55.516Z,-1.03
2022-11-18T22:06:24.648Z,-1.09
2022-11-18T22:08:52.345Z,-1.13
2022-11-18T22:11:20.707Z,-1.16
2022-11-18T22:13:47.369Z,-1.12
2022-11-18T22:16:16.671Z,-1.09
2022-11-18T22:18:45.109Z,-1.15
2022-11-18T22:21:19.517Z,-1.30
2022-11-18T22:23:46.998Z,-1.28
2022-11-18T22:26:16.185Z,-1.39
2022-11-18T22:28:43.516Z,-1.34
2022-11-18T22:31:12.492Z,-1.37
2022-11-18T22:33:39.517Z,-1.35
2022-11-18T22:36:16.578Z,-1.34
2022-11-18T22:38:44.707Z,-1.40
2022-11-18T22:41:33.996Z,-1.41
2022-11-18T22:44:06.905Z,-1.34
2022-11-18T22:46:34.881Z,-1.35
2022-11-18T22:49:01.727Z,-1.31
2022-11-18T22:51:28.471Z,-1.46
2022-11-18T22:54:15.812Z,-1.31
2022-11-18T22:56:42.258Z,-1.34
2022-11-18T22:59:10.623Z,-1.35
2022-11-18T23:01:37.455Z,-1.33
2022-11-18T23:04:04.155Z,-1.35
2022-11-18T23:06:30.902Z,-1.41
2022-11-18T23:08:57.529Z,-1.39
2022-11-18T23:11:42.728Z,-1.34
2022-11-18T23:14:10.486Z,-1.27
2022-11-18T23:16:39.467Z,-1.31
2022-11-18T23:19:08.811Z,-1.25
2022-11-18T23:21:35.904Z,-1.41
2022-11-18T23:24:03.080Z,-1.42
2022-11-18T23:26:29.952Z,-1.38
2022-11-18T23:28:56.702Z,-1.41
2022-11-18T23:31:25.798Z,-1.34
2022-11-18T23:33:54.243Z,-1.35
2022-11-18T23:36:21.376Z,-1.29
2022-11-18T23:38:48.948Z,-1.31
2022-11-18T23:41:18.060Z,-1.39
2022-11-18T23:43:47.119Z,-1.41
2022-11-18T23:46:15.530Z,-1.45
2022-11-18T23:48:43.403Z,-1.43
2022-11-18T23:51:12.331Z,-1.42
2022-11-18T23:53:39.901Z,-1.37
2022-11-18T23:56:12.422Z,-1.36
2022-11-18T23:58:40.385Z,-1.39
